sensor_id;sensor_type;location;lat;lon;timestamp;temperature;humidity
32173;DHT22;18679;45.190;5.722;2022-08-23T00:02:54;26.70;40.80
32173;DHT22;18679;45.190;5.722;2022-08-23T00:05:56;26.60;40.70
32173;DHT22;18679;45.190;5.722;2022-08-23T00:08:58;26.60;40.80
32173;DHT22;18679;45.190;5.722;2022-08-23T00:12:13;26.60;40.90
32173;DHT22;18679;45.190;5.722;2022-08-23T00:15:19;26.50;40.90
32173;DHT22;18679;45.190;5.722;2022-08-23T00:18:20;26.40;40.90
32173;DHT22;18679;45.190;5.722;2022-08-23T00:21:22;26.40;40.90
32173;DHT22;18679;45.190;5.722;2022-08-23T00:24:24;26.40;40.80
32173;DHT22;18679;45.190;5.722;2022-08-23T00:27:25;26.30;40.90
32173;DHT22;18679;45.190;5.722;2022-08-23T00:30:27;26.30;41.00
32173;DHT22;18679;45.190;5.722;2022-08-23T00:33:28;26.30;41.20
32173;DHT22;18679;45.190;5.722;2022-08-23T00:36:29;26.30;41.30
32173;DHT22;18679;45.190;5.722;2022-08-23T00:39:30;26.30;41.60
32173;DHT22;18679;45.190;5.722;2022-08-23T00:43:05;26.30;41.70
32173;DHT22;18679;45.190;5.722;2022-08-23T00:46:47;26.20;41.80
32173;DHT22;18679;45.190;5.722;2022-08-23T00:53:23;26.10;41.70
32173;DHT22;18679;45.190;5.722;2022-08-23T00:56:26;26.10;41.80
32173;DHT22;18679;45.190;5.722;2022-08-23T00:59:31;26.10;41.90
32173;DHT22;18679;45.190;5.722;2022-08-23T01:02:32;26.00;42.00
32173;DHT22;18679;45.190;5.722;2022-08-23T01:05:43;26.00;42.10
32173;DHT22;18679;45.190;5.722;2022-08-23T01:08:51;26.00;42.30
32173;DHT22;18679;45.190;5.722;2022-08-23T01:15:07;26.00;42.00
32173;DHT22;18679;45.190;5.722;2022-08-23T01:18:12;26.00;42.10
32173;DHT22;18679;45.190;5.722;2022-08-23T01:21:32;25.90;42.30
32173;DHT22;18679;45.190;5.722;2022-08-23T01:24:38;25.80;42.30
32173;DHT22;18679;45.190;5.722;2022-08-23T01:27:40;25.80;42.20
32173;DHT22;18679;45.190;5.722;2022-08-23T01:30:42;25.70;42.00
32173;DHT22;18679;45.190;5.722;2022-08-23T01:33:53;25.70;42.00
32173;DHT22;18679;45.190;5.722;2022-08-23T01:36:56;25.60;42.10
32173;DHT22;18679;45.190;5.722;2022-08-23T01:39:58;25.50;42.20
32173;DHT22;18679;45.190;5.722;2022-08-23T01:43:00;25.50;42.40
32173;DHT22;18679;45.190;5.722;2022-08-23T01:46:10;25.40;42.60
32173;DHT22;18679;45.190;5.722;2022-08-23T01:49:12;25.40;42.80
32173;DHT22;18679;45.190;5.722;2022-08-23T01:52:15;25.40;42.70
32173;DHT22;18679;45.190;5.722;2022-08-23T01:55:17;25.30;42.90
32173;DHT22;18679;45.190;5.722;2022-08-23T01:58:18;25.30;43.10
32173;DHT22;18679;45.190;5.722;2022-08-23T02:01:20;25.30;43.50
32173;DHT22;18679;45.190;5.722;2022-08-23T02:04:21;25.20;43.80
32173;DHT22;18679;45.190;5.722;2022-08-23T02:07:27;25.20;43.70
32173;DHT22;18679;45.190;5.722;2022-08-23T02:10:29;25.20;43.60
32173;DHT22;18679;45.190;5.722;2022-08-23T02:13:30;25.10;43.60
32173;DHT22;18679;45.190;5.722;2022-08-23T02:16:35;25.00;43.70
32173;DHT22;18679;45.190;5.722;2022-08-23T02:19:38;25.00;43.70
32173;DHT22;18679;45.190;5.722;2022-08-23T02:22:39;24.90;43.70
32173;DHT22;18679;45.190;5.722;2022-08-23T02:25:40;24.90;43.80
32173;DHT22;18679;45.190;5.722;2022-08-23T02:28:42;24.90;43.80
32173;DHT22;18679;45.190;5.722;2022-08-23T02:31:44;24.90;43.80
32173;DHT22;18679;45.190;5.722;2022-08-23T02:34:46;24.90;43.80
32173;DHT22;18679;45.190;5.722;2022-08-23T02:37:48;24.80;43.90
32173;DHT22;18679;45.190;5.722;2022-08-23T02:40:49;24.90;44.30
32173;DHT22;18679;45.190;5.722;2022-08-23T02:43:51;24.80;45.20
32173;DHT22;18679;45.190;5.722;2022-08-23T02:46:53;24.80;44.90
32173;DHT22;18679;45.190;5.722;2022-08-23T02:49:54;24.80;45.30
32173;DHT22;18679;45.190;5.722;2022-08-23T02:52:56;24.70;45.60
32173;DHT22;18679;45.190;5.722;2022-08-23T02:55:58;24.70;45.80
32173;DHT22;18679;45.190;5.722;2022-08-23T02:58:59;24.70;46.10
32173;DHT22;18679;45.190;5.722;2022-08-23T03:02:01;24.60;46.20
32173;DHT22;18679;45.190;5.722;2022-08-23T03:05:08;24.60;46.30
32173;DHT22;18679;45.190;5.722;2022-08-23T03:08:10;24.50;46.40
32173;DHT22;18679;45.190;5.722;2022-08-23T03:11:20;24.50;46.50
32173;DHT22;18679;45.190;5.722;2022-08-23T03:14:24;24.50;46.60
32173;DHT22;18679;45.190;5.722;2022-08-23T03:17:27;24.50;46.50
32173;DHT22;18679;45.190;5.722;2022-08-23T03:20:29;24.40;46.60
32173;DHT22;18679;45.190;5.722;2022-08-23T03:23:30;24.40;46.80
32173;DHT22;18679;45.190;5.722;2022-08-23T03:26:32;24.30;46.80
32173;DHT22;18679;45.190;5.722;2022-08-23T03:29:33;24.30;46.70
32173;DHT22;18679;45.190;5.722;2022-08-23T03:32:36;24.30;46.70
32173;DHT22;18679;45.190;5.722;2022-08-23T03:35:37;24.20;46.70
32173;DHT22;18679;45.190;5.722;2022-08-23T03:38:39;24.20;46.90
32173;DHT22;18679;45.190;5.722;2022-08-23T03:41:43;24.20;47.10
32173;DHT22;18679;45.190;5.722;2022-08-23T03:44:46;24.20;47.10
32173;DHT22;18679;45.190;5.722;2022-08-23T03:47:47;24.20;47.10
32173;DHT22;18679;45.190;5.722;2022-08-23T03:50:48;24.20;47.10
32173;DHT22;18679;45.190;5.722;2022-08-23T03:53:49;24.10;47.00
32173;DHT22;18679;45.190;5.722;2022-08-23T03:56:55;24.20;47.10
32173;DHT22;18679;45.190;5.722;2022-08-23T04:00:02;24.10;47.10
32173;DHT22;18679;45.190;5.722;2022-08-23T04:03:16;24.00;47.10
32173;DHT22;18679;45.190;5.722;2022-08-23T04:06:34;24.00;47.10
32173;DHT22;18679;45.190;5.722;2022-08-23T04:09:35;24.00;47.20
32173;DHT22;18679;45.190;5.722;2022-08-23T04:12:36;24.00;47.20
32173;DHT22;18679;45.190;5.722;2022-08-23T04:15:40;24.00;47.30
32173;DHT22;18679;45.190;5.722;2022-08-23T04:18:41;24.00;47.50
32173;DHT22;18679;45.190;5.722;2022-08-23T04:21:45;24.00;47.90
32173;DHT22;18679;45.190;5.722;2022-08-23T04:24:48;24.00;48.00
32173;DHT22;18679;45.190;5.722;2022-08-23T04:27:50;23.90;48.20
32173;DHT22;18679;45.190;5.722;2022-08-23T04:30:51;23.90;48.50
32173;DHT22;18679;45.190;5.722;2022-08-23T04:33:53;23.90;48.60
32173;DHT22;18679;45.190;5.722;2022-08-23T04:36:55;23.80;48.80
32173;DHT22;18679;45.190;5.722;2022-08-23T04:39:56;23.80;49.00
32173;DHT22;18679;45.190;5.722;2022-08-23T04:43:16;23.80;49.30
32173;DHT22;18679;45.190;5.722;2022-08-23T04:46:18;23.80;49.40
32173;DHT22;18679;45.190;5.722;2022-08-23T04:49:20;23.70;49.30
32173;DHT22;18679;45.190;5.722;2022-08-23T04:52:23;23.70;49.30
32173;DHT22;18679;45.190;5.722;2022-08-23T04:55:24;23.70;49.30
32173;DHT22;18679;45.190;5.722;2022-08-23T04:58:36;23.70;49.40
32173;DHT22;18679;45.190;5.722;2022-08-23T05:01:38;23.60;49.30
32173;DHT22;18679;45.190;5.722;2022-08-23T05:04:39;23.60;49.40
32173;DHT22;18679;45.190;5.722;2022-08-23T05:07:41;23.60;49.40
32173;DHT22;18679;45.190;5.722;2022-08-23T05:10:42;23.60;49.40
32173;DHT22;18679;45.190;5.722;2022-08-23T05:13:44;23.50;49.40
32173;DHT22;18679;45.190;5.722;2022-08-23T05:16:45;23.50;49.50
32173;DHT22;18679;45.190;5.722;2022-08-23T05:19:46;23.50;49.40
32173;DHT22;18679;45.190;5.722;2022-08-23T05:22:48;23.50;49.50
32173;DHT22;18679;45.190;5.722;2022-08-23T05:26:07;23.50;49.40
32173;DHT22;18679;45.190;5.722;2022-08-23T05:29:13;23.40;49.40
32173;DHT22;18679;45.190;5.722;2022-08-23T05:32:22;23.40;49.40
32173;DHT22;18679;45.190;5.722;2022-08-23T05:35:23;23.40;49.50
32173;DHT22;18679;45.190;5.722;2022-08-23T05:38:25;23.40;49.80
32173;DHT22;18679;45.190;5.722;2022-08-23T05:41:27;23.40;50.00
32173;DHT22;18679;45.190;5.722;2022-08-23T05:44:29;23.40;50.00
32173;DHT22;18679;45.190;5.722;2022-08-23T05:47:30;23.40;50.10
32173;DHT22;18679;45.190;5.722;2022-08-23T05:51:10;23.40;50.20
32173;DHT22;18679;45.190;5.722;2022-08-23T05:54:12;23.40;50.40
32173;DHT22;18679;45.190;5.722;2022-08-23T05:57:13;23.40;50.40
32173;DHT22;18679;45.190;5.722;2022-08-23T06:00:14;23.40;50.40
32173;DHT22;18679;45.190;5.722;2022-08-23T06:03:31;23.40;50.50
32173;DHT22;18679;45.190;5.722;2022-08-23T06:06:33;23.40;50.60
32173;DHT22;18679;45.190;5.722;2022-08-23T06:09:34;23.40;50.80
32173;DHT22;18679;45.190;5.722;2022-08-23T06:12:36;23.40;50.70
32173;DHT22;18679;45.190;5.722;2022-08-23T06:15:42;23.40;50.80
32173;DHT22;18679;45.190;5.722;2022-08-23T06:18:45;23.50;50.80
32173;DHT22;18679;45.190;5.722;2022-08-23T06:22:06;23.40;50.80
32173;DHT22;18679;45.190;5.722;2022-08-23T06:25:12;23.50;50.90
32173;DHT22;18679;45.190;5.722;2022-08-23T06:28:36;23.50;51.00
32173;DHT22;18679;45.190;5.722;2022-08-23T06:31:42;23.50;51.10
32173;DHT22;18679;45.190;5.722;2022-08-23T06:35:01;23.50;51.10
32173;DHT22;18679;45.190;5.722;2022-08-23T06:38:28;23.60;51.20
32173;DHT22;18679;45.190;5.722;2022-08-23T06:41:56;23.60;51.20
32173;DHT22;18679;45.190;5.722;2022-08-23T06:45:03;23.60;51.20
32173;DHT22;18679;45.190;5.722;2022-08-23T06:48:24;23.60;51.10
32173;DHT22;18679;45.190;5.722;2022-08-23T06:51:29;23.70;51.00
32173;DHT22;18679;45.190;5.722;2022-08-23T06:54:50;23.70;50.90
32173;DHT22;18679;45.190;5.722;2022-08-23T06:58:01;23.80;50.90
32173;DHT22;18679;45.190;5.722;2022-08-23T07:01:49;23.90;50.70
32173;DHT22;18679;45.190;5.722;2022-08-23T07:05:02;24.00;50.50
32173;DHT22;18679;45.190;5.722;2022-08-23T07:08:12;24.20;50.30
32173;DHT22;18679;45.190;5.722;2022-08-23T07:11:13;24.30;50.20
32173;DHT22;18679;45.190;5.722;2022-08-23T07:14:16;24.40;49.90
32173;DHT22;18679;45.190;5.722;2022-08-23T07:17:18;24.50;49.80
32173;DHT22;18679;45.190;5.722;2022-08-23T07:20:19;24.60;49.60
32173;DHT22;18679;45.190;5.722;2022-08-23T07:23:20;24.70;49.30
32173;DHT22;18679;45.190;5.722;2022-08-23T07:26:22;24.90;49.10
32173;DHT22;18679;45.190;5.722;2022-08-23T07:29:24;24.90;48.60
32173;DHT22;18679;45.190;5.722;2022-08-23T07:32:25;25.10;48.40
32173;DHT22;18679;45.190;5.722;2022-08-23T07:35:30;25.20;48.20
32173;DHT22;18679;45.190;5.722;2022-08-23T07:38:33;25.30;47.90
32173;DHT22;18679;45.190;5.722;2022-08-23T07:41:35;25.40;47.40
32173;DHT22;18679;45.190;5.722;2022-08-23T07:44:42;25.50;47.20
32173;DHT22;18679;45.190;5.722;2022-08-23T07:47:43;25.50;47.00
32173;DHT22;18679;45.190;5.722;2022-08-23T07:50:57;25.60;46.60
32173;DHT22;18679;45.190;5.722;2022-08-23T07:54:04;25.70;46.20
32173;DHT22;18679;45.190;5.722;2022-08-23T07:57:06;25.80;45.70
32173;DHT22;18679;45.190;5.722;2022-08-23T08:00:28;25.90;45.50
32173;DHT22;18679;45.190;5.722;2022-08-23T08:03:51;26.00;45.30
32173;DHT22;18679;45.190;5.722;2022-08-23T08:07:00;26.10;45.00
32173;DHT22;18679;45.190;5.722;2022-08-23T08:10:03;26.20;44.40
32173;DHT22;18679;45.190;5.722;2022-08-23T08:13:05;26.30;44.30
32173;DHT22;18679;45.190;5.722;2022-08-23T08:16:07;26.30;44.00
32173;DHT22;18679;45.190;5.722;2022-08-23T08:19:13;26.50;43.60
32173;DHT22;18679;45.190;5.722;2022-08-23T08:22:36;26.60;42.90
32173;DHT22;18679;45.190;5.722;2022-08-23T08:25:43;26.70;42.70
32173;DHT22;18679;45.190;5.722;2022-08-23T08:28:47;26.90;42.40
32173;DHT22;18679;45.190;5.722;2022-08-23T08:31:50;27.00;42.00
32173;DHT22;18679;45.190;5.722;2022-08-23T08:34:51;27.00;42.30
32173;DHT22;18679;45.190;5.722;2022-08-23T08:37:52;27.20;41.60
32173;DHT22;18679;45.190;5.722;2022-08-23T08:47:29;27.40;41.30
32173;DHT22;18679;45.190;5.722;2022-08-23T08:50:39;27.50;41.10
32173;DHT22;18679;45.190;5.722;2022-08-23T08:53:44;27.50;41.00
32173;DHT22;18679;45.190;5.722;2022-08-23T08:56:52;27.50;40.90
32173;DHT22;18679;45.190;5.722;2022-08-23T09:00:12;27.70;40.90
32173;DHT22;18679;45.190;5.722;2022-08-23T09:03:19;27.70;40.80
32173;DHT22;18679;45.190;5.722;2022-08-23T09:06:33;27.80;40.70
32173;DHT22;18679;45.190;5.722;2022-08-23T09:16:33;28.20;40.50
32173;DHT22;18679;45.190;5.722;2022-08-23T09:19:37;28.20;40.30
32173;DHT22;18679;45.190;5.722;2022-08-23T09:22:45;28.20;40.20
32173;DHT22;18679;45.190;5.722;2022-08-23T09:25:59;28.30;40.20
32173;DHT22;18679;45.190;5.722;2022-08-23T09:29:27;28.40;40.10
32173;DHT22;18679;45.190;5.722;2022-08-23T09:32:36;28.50;39.90
32173;DHT22;18679;45.190;5.722;2022-08-23T09:35:42;28.50;39.60
32173;DHT22;18679;45.190;5.722;2022-08-23T09:39:24;28.60;39.40
32173;DHT22;18679;45.190;5.722;2022-08-23T09:42:37;28.60;39.40
32173;DHT22;18679;45.190;5.722;2022-08-23T09:48:53;28.80;39.00
32173;DHT22;18679;45.190;5.722;2022-08-23T09:52:08;28.80;38.60
32173;DHT22;18679;45.190;5.722;2022-08-23T09:55:34;28.90;38.50
32173;DHT22;18679;45.190;5.722;2022-08-23T09:58:39;29.00;38.40
32173;DHT22;18679;45.190;5.722;2022-08-23T10:01:46;29.10;38.30
32173;DHT22;18679;45.190;5.722;2022-08-23T10:05:01;29.10;38.00
32173;DHT22;18679;45.190;5.722;2022-08-23T10:08:05;29.20;37.80
32173;DHT22;18679;45.190;5.722;2022-08-23T10:11:25;29.30;37.70
32173;DHT22;18679;45.190;5.722;2022-08-23T10:14:29;29.30;37.60
32173;DHT22;18679;45.190;5.722;2022-08-23T10:18:04;29.30;37.30
32173;DHT22;18679;45.190;5.722;2022-08-23T10:21:21;29.30;37.10
32173;DHT22;18679;45.190;5.722;2022-08-23T10:24:45;29.40;37.10
32173;DHT22;18679;45.190;5.722;2022-08-23T10:28:09;29.40;36.90
32173;DHT22;18679;45.190;5.722;2022-08-23T10:38:57;29.70;36.60
32173;DHT22;18679;45.190;5.722;2022-08-23T10:42:07;29.70;36.40
32173;DHT22;18679;45.190;5.722;2022-08-23T10:45:15;29.70;36.40
32173;DHT22;18679;45.190;5.722;2022-08-23T10:48:25;29.80;36.30
32173;DHT22;18679;45.190;5.722;2022-08-23T10:51:44;30.00;36.30
32173;DHT22;18679;45.190;5.722;2022-08-23T10:54:51;30.30;35.90
32173;DHT22;18679;45.190;5.722;2022-08-23T10:58:20;30.70;34.70
32173;DHT22;18679;45.190;5.722;2022-08-23T11:01:43;31.10;34.20
32173;DHT22;18679;45.190;5.722;2022-08-23T11:08:29;31.80;33.60
32173;DHT22;18679;45.190;5.722;2022-08-23T11:11:43;32.20;33.20
32173;DHT22;18679;45.190;5.722;2022-08-23T11:18:06;32.60;32.00
32173;DHT22;18679;45.190;5.722;2022-08-23T11:21:40;32.80;31.50
32173;DHT22;18679;45.190;5.722;2022-08-23T11:24:53;33.00;31.10
32173;DHT22;18679;45.190;5.722;2022-08-23T11:34:49;33.80;30.10
32173;DHT22;18679;45.190;5.722;2022-08-23T11:37:59;34.10;30.10
32173;DHT22;18679;45.190;5.722;2022-08-23T11:42:17;34.40;30.00
32173;DHT22;18679;45.190;5.722;2022-08-23T11:44:54;34.60;30.50
32173;DHT22;18679;45.190;5.722;2022-08-23T11:51:17;34.90;29.50
32173;DHT22;18679;45.190;5.722;2022-08-23T11:58:22;35.40;29.00
32173;DHT22;18679;45.190;5.722;2022-08-23T12:01:35;35.80;28.50
32173;DHT22;18679;45.190;5.722;2022-08-23T12:04:44;36.20;27.80
32173;DHT22;18679;45.190;5.722;2022-08-23T12:11:06;36.60;26.80
32173;DHT22;18679;45.190;5.722;2022-08-23T12:20:46;37.40;25.50
32173;DHT22;18679;45.190;5.722;2022-08-23T12:23:52;37.60;25.20
32173;DHT22;18679;45.190;5.722;2022-08-23T12:27:02;37.90;24.90
32173;DHT22;18679;45.190;5.722;2022-08-23T12:30:18;38.40;24.40
32173;DHT22;18679;45.190;5.722;2022-08-23T12:33:48;38.70;23.80
32173;DHT22;18679;45.190;5.722;2022-08-23T12:40:34;39.10;23.30
32173;DHT22;18679;45.190;5.722;2022-08-23T12:43:35;39.30;23.20
32173;DHT22;18679;45.190;5.722;2022-08-23T12:46:40;39.50;22.80
32173;DHT22;18679;45.190;5.722;2022-08-23T12:49:51;39.70;22.50
32173;DHT22;18679;45.190;5.722;2022-08-23T12:53:03;39.90;22.40
32173;DHT22;18679;45.190;5.722;2022-08-23T12:56:21;40.20;22.10
32173;DHT22;18679;45.190;5.722;2022-08-23T13:02:37;40.80;21.70
32173;DHT22;18679;45.190;5.722;2022-08-23T13:06:00;41.10;21.40
32173;DHT22;18679;45.190;5.722;2022-08-23T13:09:06;41.50;21.00
32173;DHT22;18679;45.190;5.722;2022-08-23T13:12:09;41.80;20.70
32173;DHT22;18679;45.190;5.722;2022-08-23T13:15:11;42.00;20.60
32173;DHT22;18679;45.190;5.722;2022-08-23T13:21:31;42.60;20.20
32173;DHT22;18679;45.190;5.722;2022-08-23T13:24:34;43.10;19.80
32173;DHT22;18679;45.190;5.722;2022-08-23T13:31:02;43.30;19.60
32173;DHT22;18679;45.190;5.722;2022-08-23T13:34:03;43.30;19.40
32173;DHT22;18679;45.190;5.722;2022-08-23T13:40:24;43.90;19.00
32173;DHT22;18679;45.190;5.722;2022-08-23T13:43:46;44.10;18.80
32173;DHT22;18679;45.190;5.722;2022-08-23T13:46:48;44.10;18.70
32173;DHT22;18679;45.190;5.722;2022-08-23T13:49:50;44.70;18.60
32173;DHT22;18679;45.190;5.722;2022-08-23T13:52:51;45.20;18.20
32173;DHT22;18679;45.190;5.722;2022-08-23T13:55:55;45.40;17.90
32173;DHT22;18679;45.190;5.722;2022-08-23T13:59:01;45.40;17.70
32173;DHT22;18679;45.190;5.722;2022-08-23T14:02:14;45.40;17.70
32173;DHT22;18679;45.190;5.722;2022-08-23T14:05:21;45.60;17.50
32173;DHT22;18679;45.190;5.722;2022-08-23T14:08:22;45.50;17.50
32173;DHT22;18679;45.190;5.722;2022-08-23T14:11:23;45.60;17.40
32173;DHT22;18679;45.190;5.722;2022-08-23T14:14:25;45.90;17.10
32173;DHT22;18679;45.190;5.722;2022-08-23T14:17:28;45.70;17.00
32173;DHT22;18679;45.190;5.722;2022-08-23T14:20:31;45.40;17.10
32173;DHT22;18679;45.190;5.722;2022-08-23T14:23:32;44.60;17.60
32173;DHT22;18679;45.190;5.722;2022-08-23T14:26:33;43.40;18.30
32173;DHT22;18679;45.190;5.722;2022-08-23T14:29:35;42.10;18.90
32173;DHT22;18679;45.190;5.722;2022-08-23T14:32:37;40.90;19.80
32173;DHT22;18679;45.190;5.722;2022-08-23T14:35:40;39.90;20.40
32173;DHT22;18679;45.190;5.722;2022-08-23T14:38:42;39.10;21.10
32173;DHT22;18679;45.190;5.722;2022-08-23T14:41:43;38.40;21.60
32173;DHT22;18679;45.190;5.722;2022-08-23T14:44:44;37.70;22.20
32173;DHT22;18679;45.190;5.722;2022-08-23T14:47:45;37.10;22.70
32173;DHT22;18679;45.190;5.722;2022-08-23T14:50:47;36.70;23.10
32173;DHT22;18679;45.190;5.722;2022-08-23T14:53:48;36.40;23.40
32173;DHT22;18679;45.190;5.722;2022-08-23T14:56:50;36.00;23.60
32173;DHT22;18679;45.190;5.722;2022-08-23T14:59:51;35.80;23.90
32173;DHT22;18679;45.190;5.722;2022-08-23T15:02:52;35.60;24.20
32173;DHT22;18679;45.190;5.722;2022-08-23T15:05:53;35.40;24.50
32173;DHT22;18679;45.190;5.722;2022-08-23T15:08:55;35.30;24.60
32173;DHT22;18679;45.190;5.722;2022-08-23T15:11:56;35.10;24.80
32173;DHT22;18679;45.190;5.722;2022-08-23T15:14:57;35.10;25.00
32173;DHT22;18679;45.190;5.722;2022-08-23T15:18:01;35.10;25.00
32173;DHT22;18679;45.190;5.722;2022-08-23T15:21:03;35.00;25.10
32173;DHT22;18679;45.190;5.722;2022-08-23T15:24:05;34.90;25.20
32173;DHT22;18679;45.190;5.722;2022-08-23T15:27:06;34.80;25.40
32173;DHT22;18679;45.190;5.722;2022-08-23T15:30:09;34.80;25.60
32173;DHT22;18679;45.190;5.722;2022-08-23T15:33:11;34.70;25.70
32173;DHT22;18679;45.190;5.722;2022-08-23T15:36:13;34.70;25.80
32173;DHT22;18679;45.190;5.722;2022-08-23T15:39:15;34.70;25.90
32173;DHT22;18679;45.190;5.722;2022-08-23T15:42:17;34.70;26.00
32173;DHT22;18679;45.190;5.722;2022-08-23T15:45:18;34.70;26.10
32173;DHT22;18679;45.190;5.722;2022-08-23T15:48:29;34.70;26.10
32173;DHT22;18679;45.190;5.722;2022-08-23T15:51:32;34.80;26.10
32173;DHT22;18679;45.190;5.722;2022-08-23T15:54:33;35.00;26.00
32173;DHT22;18679;45.190;5.722;2022-08-23T15:57:40;35.50;25.70
32173;DHT22;18679;45.190;5.722;2022-08-23T16:00:43;36.60;25.10
32173;DHT22;18679;45.190;5.722;2022-08-23T16:03:44;38.10;23.70
32173;DHT22;18679;45.190;5.722;2022-08-23T16:06:45;39.40;22.60
32173;DHT22;18679;45.190;5.722;2022-08-23T16:09:47;40.30;21.70
32173;DHT22;18679;45.190;5.722;2022-08-23T16:12:48;41.00;21.10
32173;DHT22;18679;45.190;5.722;2022-08-23T16:15:49;41.50;20.70
32173;DHT22;18679;45.190;5.722;2022-08-23T16:18:51;42.20;20.40
32173;DHT22;18679;45.190;5.722;2022-08-23T16:21:56;42.70;19.90
32173;DHT22;18679;45.190;5.722;2022-08-23T16:24:57;43.00;19.50
32173;DHT22;18679;45.190;5.722;2022-08-23T16:28:00;43.00;19.30
32173;DHT22;18679;45.190;5.722;2022-08-23T16:31:01;42.70;19.40
32173;DHT22;18679;45.190;5.722;2022-08-23T16:34:03;42.30;19.70
32173;DHT22;18679;45.190;5.722;2022-08-23T16:37:05;41.20;20.40
32173;DHT22;18679;45.190;5.722;2022-08-23T16:40:07;39.90;21.50
32173;DHT22;18679;45.190;5.722;2022-08-23T16:43:08;38.70;22.50
32173;DHT22;18679;45.190;5.722;2022-08-23T16:46:09;37.70;23.50
32173;DHT22;18679;45.190;5.722;2022-08-23T16:49:13;36.90;24.20
32173;DHT22;18679;45.190;5.722;2022-08-23T16:52:14;36.20;25.00
32173;DHT22;18679;45.190;5.722;2022-08-23T16:55:17;35.60;25.60
32173;DHT22;18679;45.190;5.722;2022-08-23T16:58:19;35.10;26.30
32173;DHT22;18679;45.190;5.722;2022-08-23T17:01:21;34.70;26.60
32173;DHT22;18679;45.190;5.722;2022-08-23T17:04:24;34.50;27.10
32173;DHT22;18679;45.190;5.722;2022-08-23T17:07:25;34.20;27.50
32173;DHT22;18679;45.190;5.722;2022-08-23T17:10:27;33.90;27.90
32173;DHT22;18679;45.190;5.722;2022-08-23T17:13:28;33.70;28.30
32173;DHT22;18679;45.190;5.722;2022-08-23T17:16:29;33.40;28.60
32173;DHT22;18679;45.190;5.722;2022-08-23T17:19:30;33.30;28.80
32173;DHT22;18679;45.190;5.722;2022-08-23T17:22:31;33.20;29.00
32173;DHT22;18679;45.190;5.722;2022-08-23T17:25:33;33.10;29.20
32173;DHT22;18679;45.190;5.722;2022-08-23T17:28:35;32.90;29.40
32173;DHT22;18679;45.190;5.722;2022-08-23T17:31:36;32.90;29.60
32173;DHT22;18679;45.190;5.722;2022-08-23T17:34:38;32.80;30.00
32173;DHT22;18679;45.190;5.722;2022-08-23T17:37:40;32.70;30.10
32173;DHT22;18679;45.190;5.722;2022-08-23T17:40:41;32.60;30.10
32173;DHT22;18679;45.190;5.722;2022-08-23T17:43:42;32.50;30.40
32173;DHT22;18679;45.190;5.722;2022-08-23T17:46:44;32.50;30.60
32173;DHT22;18679;45.190;5.722;2022-08-23T17:49:46;32.40;30.80
32173;DHT22;18679;45.190;5.722;2022-08-23T17:52:49;32.30;31.10
32173;DHT22;18679;45.190;5.722;2022-08-23T17:55:50;32.30;31.20
32173;DHT22;18679;45.190;5.722;2022-08-23T17:58:51;32.20;31.30
32173;DHT22;18679;45.190;5.722;2022-08-23T18:01:52;32.10;31.60
32173;DHT22;18679;45.190;5.722;2022-08-23T18:04:53;32.10;31.70
32173;DHT22;18679;45.190;5.722;2022-08-23T18:07:54;32.00;31.80
32173;DHT22;18679;45.190;5.722;2022-08-23T18:10:56;31.90;32.10
32173;DHT22;18679;45.190;5.722;2022-08-23T18:13:57;31.90;32.40
32173;DHT22;18679;45.190;5.722;2022-08-23T18:16:58;31.80;32.50
32173;DHT22;18679;45.190;5.722;2022-08-23T18:20:00;31.70;32.60
32173;DHT22;18679;45.190;5.722;2022-08-23T18:23:01;31.60;32.70
32173;DHT22;18679;45.190;5.722;2022-08-23T18:26:08;31.60;32.90
32173;DHT22;18679;45.190;5.722;2022-08-23T18:29:35;31.50;32.90
32173;DHT22;18679;45.190;5.722;2022-08-23T18:32:36;31.50;33.00
32173;DHT22;18679;45.190;5.722;2022-08-23T18:35:38;31.40;33.10
32173;DHT22;18679;45.190;5.722;2022-08-23T18:38:39;31.40;33.40
32173;DHT22;18679;45.190;5.722;2022-08-23T18:41:41;31.30;33.40
32173;DHT22;18679;45.190;5.722;2022-08-23T18:44:42;31.30;33.50
32173;DHT22;18679;45.190;5.722;2022-08-23T18:47:44;31.20;33.50
32173;DHT22;18679;45.190;5.722;2022-08-23T18:50:46;31.10;33.60
32173;DHT22;18679;45.190;5.722;2022-08-23T18:53:49;31.10;33.70
32173;DHT22;18679;45.190;5.722;2022-08-23T18:56:50;31.00;33.80
32173;DHT22;18679;45.190;5.722;2022-08-23T18:59:51;31.00;33.90
32173;DHT22;18679;45.190;5.722;2022-08-23T19:02:52;30.90;33.90
32173;DHT22;18679;45.190;5.722;2022-08-23T19:05:53;30.80;34.10
32173;DHT22;18679;45.190;5.722;2022-08-23T19:08:55;30.80;34.30
32173;DHT22;18679;45.190;5.722;2022-08-23T19:11:57;30.80;34.30
32173;DHT22;18679;45.190;5.722;2022-08-23T19:15:00;30.70;34.40
32173;DHT22;18679;45.190;5.722;2022-08-23T19:18:02;30.70;34.40
32173;DHT22;18679;45.190;5.722;2022-08-23T19:21:04;30.70;34.50
32173;DHT22;18679;45.190;5.722;2022-08-23T19:24:06;30.60;34.50
32173;DHT22;18679;45.190;5.722;2022-08-23T19:27:07;30.60;35.10
32173;DHT22;18679;45.190;5.722;2022-08-23T19:30:10;30.50;34.70
32173;DHT22;18679;45.190;5.722;2022-08-23T19:33:11;30.50;34.80
32173;DHT22;18679;45.190;5.722;2022-08-23T19:36:12;30.40;34.90
32173;DHT22;18679;45.190;5.722;2022-08-23T19:39:14;30.40;35.00
32173;DHT22;18679;45.190;5.722;2022-08-23T19:42:15;30.30;35.10
32173;DHT22;18679;45.190;5.722;2022-08-23T19:45:16;30.20;35.10
32173;DHT22;18679;45.190;5.722;2022-08-23T19:48:21;30.30;35.20
32173;DHT22;18679;45.190;5.722;2022-08-23T19:51:22;30.20;35.20
32173;DHT22;18679;45.190;5.722;2022-08-23T19:54:25;30.20;35.30
32173;DHT22;18679;45.190;5.722;2022-08-23T19:57:27;30.10;35.30
32173;DHT22;18679;45.190;5.722;2022-08-23T20:00:28;30.10;35.40
32173;DHT22;18679;45.190;5.722;2022-08-23T20:03:31;30.10;35.40
32173;DHT22;18679;45.190;5.722;2022-08-23T20:06:32;30.00;35.50
32173;DHT22;18679;45.190;5.722;2022-08-23T20:09:35;30.00;35.50
32173;DHT22;18679;45.190;5.722;2022-08-23T20:12:36;29.90;35.60
32173;DHT22;18679;45.190;5.722;2022-08-23T20:15:38;29.90;35.60
32173;DHT22;18679;45.190;5.722;2022-08-23T20:18:39;29.90;35.60
32173;DHT22;18679;45.190;5.722;2022-08-23T20:21:41;29.90;35.70
32173;DHT22;18679;45.190;5.722;2022-08-23T20:24:42;29.80;35.70
32173;DHT22;18679;45.190;5.722;2022-08-23T20:27:43;29.80;35.80
32173;DHT22;18679;45.190;5.722;2022-08-23T20:30:45;29.80;35.80
32173;DHT22;18679;45.190;5.722;2022-08-23T20:33:48;29.70;35.90
32173;DHT22;18679;45.190;5.722;2022-08-23T20:36:49;29.70;36.10
32173;DHT22;18679;45.190;5.722;2022-08-23T20:39:55;29.60;36.40
32173;DHT22;18679;45.190;5.722;2022-08-23T20:42:56;29.50;36.70
32173;DHT22;18679;45.190;5.722;2022-08-23T20:45:58;29.50;37.00
32173;DHT22;18679;45.190;5.722;2022-08-23T20:48:59;29.40;37.20
32173;DHT22;18679;45.190;5.722;2022-08-23T20:52:00;29.30;37.50